sensor_id;sensor_type;location;lat;lon;timestamp;pressure;altitude;pressure_sealevel;temperature;humidity
60715;BME280;46564;53.096;8.246;2023-01-25T00:04:50;103652.50;;;-1.11;nan
60715;BME280;46564;53.096;8.246;2023-01-25T00:09:52;103654.31;;;-1.10;nan
60715;BME280;46564;53.096;8.246;2023-01-25T00:14:54;103641.63;;;-1.08;nan
60715;BME280;46564;53.096;8.246;2023-01-25T00:19:56;103641.53;;;-1.17;nan
60715;BME280;46564;53.096;8.246;2023-01-25T00:24:58;103630.91;;;-1.20;nan
60715;BME280;46564;53.096;8.246;2023-01-25T00:29:59;103624.31;;;-1.25;nan
60715;BME280;46564;53.096;8.246;2023-01-25T00:35:01;103617.13;;;-1.20;nan
60715;BME280;46564;53.096;8.246;2023-01-25T00:40:08;103617.19;;;-1.28;nan
60715;BME280;46564;53.096;8.246;2023-01-25T00:45:13;103624.22;;;-1.34;nan
60715;BME280;46564;53.096;8.246;2023-01-25T00:50:15;103618.00;;;-1.36;nan
60715;BME280;46564;53.096;8.246;2023-01-25T00:55:16;103617.78;;;-1.30;nan
60715;BME280;46564;53.096;8.246;2023-01-25T01:00:18;103619.03;;;-1.27;nan
60715;BME280;46564;53.096;8.246;2023-01-25T01:05:20;103602.69;;;-1.27;nan
60715;BME280;46564;53.096;8.246;2023-01-25T01:10:22;103605.75;;;-1.22;nan
60715;BME280;46564;53.096;8.246;2023-01-25T01:15:25;103602.03;;;-1.33;nan
60715;BME280;46564;53.096;8.246;2023-01-25T01:20:26;103595.53;;;-1.30;nan
60715;BME280;46564;53.096;8.246;2023-01-25T01:25:28;103600.28;;;-1.26;nan
60715;BME280;46564;53.096;8.246;2023-01-25T01:30:30;103596.56;;;-1.20;nan
60715;BME280;46564;53.096;8.246;2023-01-25T01:35:32;103603.31;;;-1.37;nan
60715;BME280;46564;53.096;8.246;2023-01-25T01:40:34;103601.50;;;-1.38;nan
60715;BME280;46564;53.096;8.246;2023-01-25T01:50:57;103585.09;;;-1.31;nan
60715;BME280;46564;53.096;8.246;2023-01-25T01:56:01;103568.16;;;-1.29;nan
60715;BME280;46564;53.096;8.246;2023-01-25T02:01:07;103566.69;;;-1.27;nan
60715;BME280;46564;53.096;8.246;2023-01-25T02:06:14;103569.66;;;-1.31;nan
60715;BME280;46564;53.096;8.246;2023-01-25T02:11:18;103562.84;;;-1.31;nan
60715;BME280;46564;53.096;8.246;2023-01-25T02:16:23;103572.41;;;-1.30;nan
60715;BME280;46564;53.096;8.246;2023-01-25T02:21:31;103563.63;;;-1.32;nan
60715;BME280;46564;53.096;8.246;2023-01-25T02:26:36;103547.03;;;-1.27;nan
60715;BME280;46564;53.096;8.246;2023-01-25T02:31:37;103540.06;;;-1.28;nan
60715;BME280;46564;53.096;8.246;2023-01-25T02:36:39;103530.59;;;-1.36;nan
60715;BME280;46564;53.096;8.246;2023-01-25T02:41:43;103517.91;;;-1.34;nan
60715;BME280;46564;53.096;8.246;2023-01-25T02:46:45;103505.41;;;-1.31;nan
60715;BME280;46564;53.096;8.246;2023-01-25T02:51:50;103499.75;;;-1.36;nan
60715;BME280;46564;53.096;8.246;2023-01-25T02:56:53;103503.06;;;-1.37;nan
60715;BME280;46564;53.096;8.246;2023-01-25T03:01:57;103508.63;;;-1.41;nan
60715;BME280;46564;53.096;8.246;2023-01-25T03:06:59;103501.41;;;-1.52;nan
60715;BME280;46564;53.096;8.246;2023-01-25T03:12:02;103508.47;;;-1.43;nan
60715;BME280;46564;53.096;8.246;2023-01-25T03:17:06;103501.50;;;-1.44;nan
60715;BME280;46564;53.096;8.246;2023-01-25T03:22:08;103503.06;;;-1.37;nan
60715;BME280;46564;53.096;8.246;2023-01-25T03:27:11;103500.31;;;-1.38;nan
60715;BME280;46564;53.096;8.246;2023-01-25T03:32:25;103495.50;;;-1.35;nan
60715;BME280;46564;53.096;8.246;2023-01-25T03:37:27;103485.56;;;-1.32;nan
60715;BME280;46564;53.096;8.246;2023-01-25T03:42:32;103485.06;;;-1.37;nan
60715;BME280;46564;53.096;8.246;2023-01-25T03:47:34;103479.09;;;-1.45;nan
60715;BME280;46564;53.096;8.246;2023-01-25T03:52:43;103485.50;;;-1.41;nan
60715;BME280;46564;53.096;8.246;2023-01-25T03:57:48;103469.06;;;-1.50;nan
60715;BME280;46564;53.096;8.246;2023-01-25T04:02:50;103465.81;;;-1.56;nan
60715;BME280;46564;53.096;8.246;2023-01-25T04:07:53;103461.63;;;-1.56;nan
60715;BME280;46564;53.096;8.246;2023-01-25T04:13:04;103464.34;;;-1.54;nan
60715;BME280;46564;53.096;8.246;2023-01-25T04:18:07;103463.59;;;-1.53;nan
60715;BME280;46564;53.096;8.246;2023-01-25T04:23:09;103448.09;;;-1.62;nan
60715;BME280;46564;53.096;8.246;2023-01-25T04:28:12;103455.28;;;-1.67;nan
60715;BME280;46564;53.096;8.246;2023-01-25T04:33:14;103455.28;;;-1.67;nan
60715;BME280;46564;53.096;8.246;2023-01-25T04:38:17;103446.09;;;-1.65;nan
60715;BME280;46564;53.096;8.246;2023-01-25T04:43:20;103439.47;;;-1.63;nan
60715;BME280;46564;53.096;8.246;2023-01-25T04:48:27;103436.31;;;-1.60;nan
60715;BME280;46564;53.096;8.246;2023-01-25T04:53:34;103422.03;;;-1.65;nan
60715;BME280;46564;53.096;8.246;2023-01-25T04:58:38;103419.31;;;-1.67;nan
60715;BME280;46564;53.096;8.246;2023-01-25T05:03:40;103421.38;;;-1.71;nan
60715;BME280;46564;53.096;8.246;2023-01-25T05:08:51;103430.75;;;-1.72;nan
60715;BME280;46564;53.096;8.246;2023-01-25T05:13:53;103430.34;;;-1.68;nan
60715;BME280;46564;53.096;8.246;2023-01-25T05:19:03;103426.03;;;-1.60;nan
60715;BME280;46564;53.096;8.246;2023-01-25T05:24:30;103418.41;;;-1.67;nan
60715;BME280;46564;53.096;8.246;2023-01-25T05:29:37;103417.84;;;-1.65;nan
60715;BME280;46564;53.096;8.246;2023-01-25T05:34:42;103415.44;;;-1.63;nan
60715;BME280;46564;53.096;8.246;2023-01-25T05:39:44;103414.25;;;-1.58;nan
60715;BME280;46564;53.096;8.246;2023-01-25T05:44:46;103400.25;;;-1.69;nan
60715;BME280;46564;53.096;8.246;2023-01-25T05:49:50;103410.53;;;-1.69;nan
60715;BME280;46564;53.096;8.246;2023-01-25T05:55:04;103410.19;;;-1.72;nan
60715;BME280;46564;53.096;8.246;2023-01-25T06:00:07;103406.91;;;-1.71;nan
60715;BME280;46564;53.096;8.246;2023-01-25T06:05:13;103394.22;;;-1.69;nan
60715;BME280;46564;53.096;8.246;2023-01-25T06:10:16;103398.53;;;-1.77;nan
60715;BME280;46564;53.096;8.246;2023-01-25T06:15:20;103386.00;;;-1.74;nan
60715;BME280;46564;53.096;8.246;2023-01-25T06:20:22;103398.44;;;-1.70;nan
60715;BME280;46564;53.096;8.246;2023-01-25T06:25:38;103398.19;;;-1.64;nan
60715;BME280;46564;53.096;8.246;2023-01-25T06:30:40;103393.94;;;-1.64;nan
60715;BME280;46564;53.096;8.246;2023-01-25T06:35:42;103403.50;;;-1.63;nan
60715;BME280;46564;53.096;8.246;2023-01-25T06:40:44;103407.41;;;-1.66;nan
60715;BME280;46564;53.096;8.246;2023-01-25T06:45:45;103406.47;;;-1.67;nan
60715;BME280;46564;53.096;8.246;2023-01-25T06:50:58;103406.72;;;-1.72;nan
60715;BME280;46564;53.096;8.246;2023-01-25T06:56:05;103402.91;;;-1.92;nan
60715;BME280;46564;53.096;8.246;2023-01-25T07:01:20;103405.69;;;-1.98;nan
60715;BME280;46564;53.096;8.246;2023-01-25T07:06:31;103387.91;;;-1.96;nan
60715;BME280;46564;53.096;8.246;2023-01-25T07:11:34;103379.97;;;-1.90;nan
60715;BME280;46564;53.096;8.246;2023-01-25T07:16:36;103368.91;;;-1.89;nan
60715;BME280;46564;53.096;8.246;2023-01-25T07:21:39;103366.50;;;-1.88;nan
60715;BME280;46564;53.096;8.246;2023-01-25T07:26:41;103368.91;;;-1.89;nan
60715;BME280;46564;53.096;8.246;2023-01-25T07:31:43;103364.44;;;-1.83;nan
60715;BME280;46564;53.096;8.246;2023-01-25T07:36:45;103360.06;;;-1.84;nan
60715;BME280;46564;53.096;8.246;2023-01-25T07:41:50;103359.13;;;-1.85;nan
60715;BME280;46564;53.096;8.246;2023-01-25T07:46:56;103349.03;;;-1.83;nan
60715;BME280;46564;53.096;8.246;2023-01-25T07:51:59;103346.28;;;-1.85;nan
60715;BME280;46564;53.096;8.246;2023-01-25T07:57:01;103342.09;;;-1.84;nan
60715;BME280;46564;53.096;8.246;2023-01-25T08:02:10;103344.31;;;-1.87;nan
60715;BME280;46564;53.096;8.246;2023-01-25T08:07:13;103347.06;;;-1.86;nan
60715;BME280;46564;53.096;8.246;2023-01-25T08:12:15;103346.06;;;-1.79;nan
60715;BME280;46564;53.096;8.246;2023-01-25T08:17:18;103343.97;;;-1.74;nan
60715;BME280;46564;53.096;8.246;2023-01-25T08:29:06;103336.63;;;-1.87;nan
60715;BME280;46564;53.096;8.246;2023-01-25T08:34:30;103323.78;;;-1.87;nan
60715;BME280;46564;53.096;8.246;2023-01-25T08:40:18;103325.38;;;-1.97;nan
60715;BME280;46564;53.096;8.246;2023-01-25T08:45:34;103323.53;;;-1.98;nan
60715;BME280;46564;53.096;8.246;2023-01-25T08:51:11;103316.78;;;-2.04;nan
60715;BME280;46564;53.096;8.246;2023-01-25T09:10:18;103299.44;;;-2.07;nan
60715;BME280;46564;53.096;8.246;2023-01-25T09:15:40;103288.56;;;-2.20;nan
60715;BME280;46564;53.096;8.246;2023-01-25T09:20:46;103282.50;;;-2.21;nan
60715;BME280;46564;53.096;8.246;2023-01-25T09:26:00;103276.31;;;-2.23;nan
60715;BME280;46564;53.096;8.246;2023-01-25T09:31:03;103270.44;;;-2.22;nan
60715;BME280;46564;53.096;8.246;2023-01-25T09:36:40;103270.59;;;-2.20;nan
60715;BME280;46564;53.096;8.246;2023-01-25T09:42:02;103268.69;;;-2.14;nan
60715;BME280;46564;53.096;8.246;2023-01-25T09:57:55;103255.53;;;-2.17;nan
60715;BME280;46564;53.096;8.246;2023-01-25T10:03:13;103259.56;;;-2.19;nan
60715;BME280;46564;53.096;8.246;2023-01-25T10:13:33;103244.53;;;-2.16;nan
60715;BME280;46564;53.096;8.246;2023-01-25T10:23:52;103232.66;;;-2.07;nan
60715;BME280;46564;53.096;8.246;2023-01-25T10:29:17;103223.22;;;-1.99;nan
60715;BME280;46564;53.096;8.246;2023-01-25T10:34:30;103218.16;;;-1.90;nan
60715;BME280;46564;53.096;8.246;2023-01-25T10:45:21;103191.59;;;-1.82;nan
60715;BME280;46564;53.096;8.246;2023-01-25T10:56:35;103195.44;;;-1.94;nan
60715;BME280;46564;53.096;8.246;2023-01-25T11:02:48;103157.75;;;-2.03;nan
60715;BME280;46564;53.096;8.246;2023-01-25T11:07:50;103150.28;;;-2.17;nan
60715;BME280;46564;53.096;8.246;2023-01-25T12:06:16;103030.16;;;-2.04;nan
60715;BME280;46564;53.096;8.246;2023-01-25T12:42:49;102958.06;;;-2.14;nan
60715;BME280;46564;53.096;8.246;2023-01-25T12:47:56;102948.22;;;-2.18;nan
60715;BME280;46564;53.096;8.246;2023-01-25T12:53:09;102939.16;;;-2.23;nan
60715;BME280;46564;53.096;8.246;2023-01-25T13:05:31;102905.97;;;-2.13;nan
60715;BME280;46564;53.096;8.246;2023-01-25T13:11:06;102890.84;;;-2.19;nan
60715;BME280;46564;53.096;8.246;2023-01-25T13:21:44;102881.81;;;-2.06;nan
60715;BME280;46564;53.096;8.246;2023-01-25T13:31:55;102864.91;;;-2.04;nan
60715;BME280;46564;53.096;8.246;2023-01-25T13:37:48;102853.91;;;-2.03;nan
60715;BME280;46564;53.096;8.246;2023-01-25T13:42:38;102846.19;;;-2.03;nan
60715;BME280;46564;53.096;8.246;2023-01-25T13:48:10;102858.25;;;-2.11;nan
60715;BME280;46564;53.096;8.246;2023-01-25T13:53:20;102858.28;;;-2.02;nan
60715;BME280;46564;53.096;8.246;2023-01-25T13:58:27;102845.16;;;-2.05;nan
60715;BME280;46564;53.096;8.246;2023-01-25T14:03:35;102843.94;;;-2.00;nan
60715;BME280;46564;53.096;8.246;2023-01-25T14:09:03;102842.72;;;-2.04;nan
60715;BME280;46564;53.096;8.246;2023-01-25T14:21:29;102823.06;;;-2.12;nan
60715;BME280;46564;53.096;8.246;2023-01-25T14:26:56;102819.00;;;-2.10;nan
60715;BME280;46564;53.096;8.246;2023-01-25T14:32:17;102812.78;;;-2.12;nan
60715;BME280;46564;53.096;8.246;2023-01-25T14:37:21;102802.38;;;-2.14;nan
60715;BME280;46564;53.096;8.246;2023-01-25T14:42:23;102813.56;;;-2.13;nan
60715;BME280;46564;53.096;8.246;2023-01-25T14:47:30;102815.84;;;-2.16;nan
60715;BME280;46564;53.096;8.246;2023-01-25T14:52:32;102812.00;;;-2.28;nan
60715;BME280;46564;53.096;8.246;2023-01-25T14:57:41;102809.59;;;-2.36;nan
60715;BME280;46564;53.096;8.246;2023-01-25T15:02:57;102805.03;;;-2.38;nan
60715;BME280;46564;53.096;8.246;2023-01-25T15:08:35;102819.19;;;-2.42;nan
60715;BME280;46564;53.096;8.246;2023-01-25T15:13:40;102808.31;;;-2.48;nan
60715;BME280;46564;53.096;8.246;2023-01-25T15:19:35;102792.19;;;-2.47;nan
60715;BME280;46564;53.096;8.246;2023-01-25T15:50:16;102761.56;;;-2.37;nan
60715;BME280;46564;53.096;8.246;2023-01-25T16:03:11;102740.75;;;-2.40;nan
60715;BME280;46564;53.096;8.246;2023-01-25T16:09:17;102739.50;;;-2.52;nan
60715;BME280;46564;53.096;8.246;2023-01-25T16:21:12;102741.63;;;-2.39;nan
60715;BME280;46564;53.096;8.246;2023-01-25T16:33:54;102762.00;;;-2.41;nan
60715;BME280;46564;53.096;8.246;2023-01-25T16:45:25;102769.84;;;-2.39;nan
60715;BME280;46564;53.096;8.246;2023-01-25T16:50:35;102753.88;;;-2.37;nan
60715;BME280;46564;53.096;8.246;2023-01-25T16:55:40;102747.66;;;-2.39;nan
60715;BME280;46564;53.096;8.246;2023-01-25T17:01:40;102742.69;;;-2.37;nan
60715;BME280;46564;53.096;8.246;2023-01-25T17:13:01;102726.09;;;-2.41;nan
60715;BME280;46564;53.096;8.246;2023-01-25T17:18:03;102708.09;;;-2.50;nan
60715;BME280;46564;53.096;8.246;2023-01-25T17:23:58;102693.78;;;-2.47;nan
60715;BME280;46564;53.096;8.246;2023-01-25T17:29:19;102684.28;;;-2.49;nan
60715;BME280;46564;53.096;8.246;2023-01-25T17:35:06;102669.94;;;-2.46;nan
60715;BME280;46564;53.096;8.246;2023-01-25T17:40:11;102672.47;;;-2.55;nan
60715;BME280;46564;53.096;8.246;2023-01-25T17:45:15;102665.53;;;-2.65;nan
60715;BME280;46564;53.096;8.246;2023-01-25T17:50:17;102650.59;;;-2.60;nan
60715;BME280;46564;53.096;8.246;2023-01-25T17:55:19;102639.56;;;-2.68;nan
60715;BME280;46564;53.096;8.246;2023-01-25T18:00:21;102635.63;;;-2.82;nan
60715;BME280;46564;53.096;8.246;2023-01-25T18:05:25;102616.59;;;-2.84;nan
60715;BME280;46564;53.096;8.246;2023-01-25T18:10:27;102598.06;;;-2.81;nan
60715;BME280;46564;53.096;8.246;2023-01-25T18:15:29;102587.97;;;-2.80;nan
60715;BME280;46564;53.096;8.246;2023-01-25T18:20:31;102587.97;;;-2.80;nan
60715;BME280;46564;53.096;8.246;2023-01-25T18:25:35;102576.97;;;-2.79;nan
60715;BME280;46564;53.096;8.246;2023-01-25T18:30:49;102573.78;;;-2.76;nan
60715;BME280;46564;53.096;8.246;2023-01-25T18:35:52;102553.59;;;-2.82;nan
60715;BME280;46564;53.096;8.246;2023-01-25T18:40:55;102541.22;;;-2.86;nan
60715;BME280;46564;53.096;8.246;2023-01-25T18:45:57;102527.66;;;-2.85;nan
60715;BME280;46564;53.096;8.246;2023-01-25T18:51:08;102512.56;;;-2.82;nan
60715;BME280;46564;53.096;8.246;2023-01-25T18:56:20;102525.38;;;-2.82;nan
60715;BME280;46564;53.096;8.246;2023-01-25T19:01:23;102520.25;;;-2.82;nan
60715;BME280;46564;53.096;8.246;2023-01-25T19:06:25;102506.81;;;-2.79;nan
60715;BME280;46564;53.096;8.246;2023-01-25T19:11:27;102514.81;;;-2.76;nan
60715;BME280;46564;53.096;8.246;2023-01-25T19:16:29;102516.19;;;-2.71;nan
60715;BME280;46564;53.096;8.246;2023-01-25T19:21:52;102510.91;;;-2.73;nan
60715;BME280;46564;53.096;8.246;2023-01-25T19:26:54;102487.97;;;-2.80;nan
60715;BME280;46564;53.096;8.246;2023-01-25T19:31:56;102481.50;;;-2.85;nan
60715;BME280;46564;53.096;8.246;2023-01-25T19:36:58;102475.75;;;-2.82;nan
60715;BME280;46564;53.096;8.246;2023-01-25T19:42:06;102469.44;;;-2.77;nan
60715;BME280;46564;53.096;8.246;2023-01-25T19:47:27;102483.59;;;-2.72;nan
60715;BME280;46564;53.096;8.246;2023-01-25T19:52:33;102474.25;;;-2.72;nan
60715;BME280;46564;53.096;8.246;2023-01-25T19:57:40;102479.06;;;-2.75;nan
60715;BME280;46564;53.096;8.246;2023-01-25T20:02:46;102476.81;;;-2.72;nan
60715;BME280;46564;53.096;8.246;2023-01-25T20:25:14;102460.94;;;-2.59;nan
60715;BME280;46564;53.096;8.246;2023-01-25T20:37:17;102454.03;;;-2.69;nan
60715;BME280;46564;53.096;8.246;2023-01-25T21:11:17;102429.44;;;-2.84;nan
60715;BME280;46564;53.096;8.246;2023-01-25T21:16:19;102416.31;;;-2.87;nan
60715;BME280;46564;53.096;8.246;2023-01-25T21:21:27;102428.25;;;-2.79;nan
60715;BME280;46564;53.096;8.246;2023-01-25T21:26:30;102408.78;;;-2.77;nan
60715;BME280;46564;53.096;8.246;2023-01-25T21:31:35;102416.19;;;-2.80;nan
60715;BME280;46564;53.096;8.246;2023-01-25T21:36:37;102409.22;;;-2.81;nan
60715;BME280;46564;53.096;8.246;2023-01-25T21:41:39;102392.66;;;-2.76;nan
60715;BME280;46564;53.096;8.246;2023-01-25T21:46:41;102396.84;;;-2.76;nan
60715;BME280;46564;53.096;8.246;2023-01-25T21:51:58;102394.91;;;-2.70;nan
60715;BME280;46564;53.096;8.246;2023-01-25T21:57:07;102396.38;;;-2.63;nan
60715;BME280;46564;53.096;8.246;2023-01-25T22:02:12;102389.72;;;-2.61;nan
60715;BME280;46564;53.096;8.246;2023-01-25T22:07:14;102393.06;;;-2.62;nan
60715;BME280;46564;53.096;8.246;2023-01-25T22:12:16;102386.88;;;-2.64;nan
60715;BME280;46564;53.096;8.246;2023-01-25T22:17:18;102377.69;;;-2.62;nan
60715;BME280;46564;53.096;8.246;2023-01-25T22:22:22;102379.19;;;-2.64;nan
60715;BME280;46564;53.096;8.246;2023-01-25T22:27:35;102385.09;;;-2.65;nan
60715;BME280;46564;53.096;8.246;2023-01-25T22:32:38;102374.97;;;-2.64;nan
60715;BME280;46564;53.096;8.246;2023-01-25T22:37:40;102369.69;;;-2.65;nan
60715;BME280;46564;53.096;8.246;2023-01-25T22:42:41;102365.47;;;-2.65;nan
60715;BME280;46564;53.096;8.246;2023-01-25T22:47:43;102358.94;;;-2.61;nan
60715;BME280;46564;53.096;8.246;2023-01-25T22:52:45;102356.53;;;-2.60;nan
60715;BME280;46564;53.096;8.246;2023-01-25T22:57:49;102346.91;;;-2.62;nan
60715;BME280;46564;53.096;8.246;2023-01-25T23:02:53;102344.16;;;-2.55;nan
60715;BME280;46564;53.096;8.246;2023-01-25T23:07:56;102345.22;;;-2.53;nan
60715;BME280;46564;53.096;8.246;2023-01-25T23:12:59;102350.63;;;-2.50;nan
60715;BME280;46564;53.096;8.246;2023-01-25T23:18:01;102343.09;;;-2.49;nan
60715;BME280;46564;53.096;8.246;2023-01-25T23:23:21;102323.75;;;-2.45;nan
60715;BME280;46564;53.096;8.246;2023-01-25T23:28:23;102318.59;;;-2.45;nan
60715;BME280;46564;53.096;8.246;2023-01-25T23:33:24;102316.72;;;-2.56;nan
60715;BME280;46564;53.096;8.246;2023-01-25T23:38:26;102314.44;;;-2.53;nan
60715;BME280;46564;53.096;8.246;2023-01-25T23:43:28;102316.25;;;-2.52;nan
60715;BME280;46564;53.096;8.246;2023-01-25T23:48:30;102311.41;;;-2.49;nan
60715;BME280;46564;53.096;8.246;2023-01-25T23:53:31;102308.69;;;-2.51;nan
60715;BME280;46564;53.096;8.246;2023-01-25T23:58:35;102291.78;;;-2.49;nan
